createdAt,value
2017-07-19T00:01:42.771Z,25.30
2017-07-19T00:04:10.371Z,25.26
2017-07-19T00:06:37.987Z,25.16
2017-07-19T00:09:05.664Z,25.13
2017-07-19T00:11:33.268Z,25.12
2017-07-19T00:14:00.878Z,25.15
2017-07-19T00:16:28.510Z,25.11
2017-07-19T00:18:56.100Z,25.14
2017-07-19T00:21:23.718Z,25.13
2017-07-19T00:23:51.322Z,25.13
2017-07-19T00:26:18.959Z,25.14
2017-07-19T00:28:46.565Z,25.12
2017-07-19T00:31:14.216Z,25.12
2017-07-19T00:33:41.804Z,25.09
2017-07-19T00:36:09.433Z,25.00
2017-07-19T00:38:37.027Z,24.99
2017-07-19T00:41:04.647Z,24.87
2017-07-19T00:43:32.238Z,24.78
2017-07-19T00:45:59.933Z,24.80
2017-07-19T00:48:27.518Z,24.72
2017-07-19T00:50:55.168Z,24.74
2017-07-19T00:53:22.845Z,24.73
2017-07-19T00:55:50.442Z,24.72
2017-07-19T00:58:18.078Z,24.65
2017-07-19T01:00:45.738Z,24.63
2017-07-19T01:03:13.339Z,24.60
2017-07-19T01:05:40.937Z,24.55
2017-07-19T01:08:08.571Z,24.56
2017-07-19T01:10:36.165Z,24.60
2017-07-19T01:13:03.871Z,24.64
2017-07-19T01:15:31.518Z,24.66
2017-07-19T01:17:59.135Z,24.59
2017-07-19T01:20:26.755Z,24.61
2017-07-19T01:22:54.393Z,24.56
2017-07-19T01:25:21.996Z,24.55
2017-07-19T01:27:49.624Z,24.54
2017-07-19T01:30:17.215Z,24.51
2017-07-19T01:32:44.868Z,24.48
2017-07-19T01:35:12.451Z,24.53
2017-07-19T01:37:40.078Z,24.46
2017-07-19T01:40:07.662Z,24.44
2017-07-19T01:42:35.342Z,24.43
2017-07-19T01:45:02.922Z,24.43
2017-07-19T01:47:30.661Z,24.49
2017-07-19T01:49:58.263Z,24.47
2017-07-19T01:52:25.894Z,24.48
2017-07-19T01:54:53.482Z,24.50
2017-07-19T01:57:21.126Z,24.44
2017-07-19T01:59:48.725Z,24.46
2017-07-19T02:02:16.356Z,24.43
2017-07-19T02:04:43.959Z,24.42
2017-07-19T02:07:11.579Z,24.44
2017-07-19T02:09:39.182Z,24.43
2017-07-19T02:12:06.826Z,24.35
2017-07-19T02:14:34.462Z,24.30
2017-07-19T02:17:02.091Z,24.23
2017-07-19T02:19:29.713Z,24.17
2017-07-19T02:21:58.141Z,24.14
2017-07-19T02:24:25.754Z,24.17
2017-07-19T02:26:53.381Z,24.21
2017-07-19T02:29:20.971Z,24.21
2017-07-19T02:31:48.625Z,24.13
2017-07-19T02:34:16.232Z,24.14
2017-07-19T02:36:43.859Z,24.17
2017-07-19T02:39:11.470Z,24.13
2017-07-19T02:41:39.122Z,24.17
2017-07-19T02:44:06.710Z,24.17
2017-07-19T02:46:34.358Z,24.11
2017-07-19T02:49:01.963Z,24.11
2017-07-19T02:51:29.597Z,24.08
2017-07-19T02:53:57.206Z,24.09
2017-07-19T02:56:24.834Z,24.11
2017-07-19T02:58:52.443Z,24.06
2017-07-19T03:01:20.066Z,24.04
2017-07-19T03:03:47.679Z,24.00
2017-07-19T03:06:15.307Z,23.98
2017-07-19T03:08:42.903Z,23.96
2017-07-19T03:11:10.546Z,23.98
2017-07-19T03:13:38.137Z,23.96
2017-07-19T03:16:05.770Z,23.92
2017-07-19T03:18:33.373Z,23.92
2017-07-19T03:21:01.006Z,23.86
2017-07-19T03:23:28.611Z,23.85
2017-07-19T03:25:56.239Z,23.79
2017-07-19T03:28:23.830Z,23.80
2017-07-19T03:30:51.450Z,23.73
2017-07-19T03:33:19.058Z,23.72
2017-07-19T03:35:46.679Z,23.70
2017-07-19T03:38:14.359Z,23.71
2017-07-19T03:40:42.009Z,23.72
2017-07-19T03:43:09.603Z,23.66
2017-07-19T03:45:37.256Z,23.60
2017-07-19T03:48:04.859Z,23.61
2017-07-19T03:50:32.459Z,23.62
2017-07-19T03:53:00.105Z,23.66
2017-07-19T03:55:27.694Z,23.68
2017-07-19T03:57:55.331Z,23.58
2017-07-19T04:00:22.959Z,23.54
2017-07-19T04:02:50.600Z,23.54
2017-07-19T04:05:18.247Z,23.61
2017-07-19T04:07:45.874Z,23.58
2017-07-19T04:10:13.481Z,23.56
2017-07-19T04:12:41.097Z,23.61
2017-07-19T04:15:08.717Z,23.60
2017-07-19T04:17:36.378Z,23.65
2017-07-19T04:20:04.039Z,23.67
2017-07-19T04:22:31.669Z,23.64
2017-07-19T04:24:59.290Z,23.62
2017-07-19T04:27:26.943Z,23.61
2017-07-19T04:29:54.542Z,23.52
2017-07-19T04:32:22.194Z,23.51
2017-07-19T04:34:49.794Z,23.44
2017-07-19T04:37:17.418Z,23.48
2017-07-19T04:39:45.071Z,23.58
2017-07-19T04:42:12.721Z,23.66
2017-07-19T04:44:40.325Z,23.72
2017-07-19T04:47:07.933Z,23.76
2017-07-19T04:49:35.605Z,23.80
2017-07-19T04:52:03.211Z,23.79
2017-07-19T04:54:30.834Z,23.84
2017-07-19T04:56:58.470Z,23.87
2017-07-19T04:59:26.074Z,23.89
2017-07-19T05:01:53.711Z,23.93
2017-07-19T05:04:21.345Z,23.92
2017-07-19T05:06:48.934Z,23.93
2017-07-19T05:09:16.566Z,23.94
2017-07-19T05:11:44.274Z,23.93
2017-07-19T05:14:11.918Z,23.92
2017-07-19T05:16:39.519Z,23.94
2017-07-19T05:19:07.152Z,23.94
2017-07-19T05:21:34.746Z,23.90
2017-07-19T05:24:02.450Z,23.89
2017-07-19T05:26:30.098Z,23.93
2017-07-19T05:28:57.714Z,23.98
2017-07-19T05:31:25.455Z,23.96
2017-07-19T05:33:53.104Z,23.96
2017-07-19T05:36:20.696Z,23.96
2017-07-19T05:38:48.297Z,24.01
2017-07-19T05:41:15.916Z,24.05
2017-07-19T05:43:43.659Z,24.10
2017-07-19T05:46:11.277Z,24.14
2017-07-19T05:48:38.886Z,24.18
2017-07-19T05:51:06.515Z,24.21
2017-07-19T05:53:34.142Z,24.25
2017-07-19T05:56:01.767Z,24.28
2017-07-19T05:58:29.374Z,24.31
2017-07-19T06:00:57.052Z,24.37
2017-07-19T06:03:24.665Z,24.41
2017-07-19T06:05:52.294Z,24.43
2017-07-19T06:08:19.926Z,24.46
2017-07-19T06:10:47.530Z,24.52
2017-07-19T06:13:15.179Z,24.57
2017-07-19T06:15:42.802Z,24.64
2017-07-19T06:18:10.430Z,24.70
2017-07-19T06:20:38.027Z,24.75
2017-07-19T06:23:05.650Z,24.79
2017-07-19T06:25:33.241Z,24.84
2017-07-19T06:28:00.908Z,24.89
2017-07-19T06:30:28.487Z,24.92
2017-07-19T06:32:56.106Z,24.96
2017-07-19T06:35:23.695Z,25.02
2017-07-19T06:37:51.339Z,25.05
2017-07-19T06:40:18.943Z,25.09
2017-07-19T06:42:46.554Z,25.16
2017-07-19T06:45:14.162Z,25.19
2017-07-19T06:47:41.794Z,25.23
2017-07-19T06:50:09.394Z,25.27
2017-07-19T06:52:37.023Z,25.29
2017-07-19T06:55:04.622Z,25.32
2017-07-19T06:57:32.249Z,25.40
2017-07-19T06:59:59.851Z,25.43
2017-07-19T07:02:27.493Z,25.49
2017-07-19T07:04:55.089Z,25.54
2017-07-19T07:07:22.754Z,25.60
2017-07-19T07:09:50.417Z,25.62
2017-07-19T07:12:18.110Z,25.67
2017-07-19T07:14:45.745Z,25.72
2017-07-19T07:17:13.382Z,25.77
2017-07-19T07:19:40.990Z,25.79
2017-07-19T07:22:08.615Z,25.83
2017-07-19T07:24:36.239Z,25.84
2017-07-19T07:27:03.839Z,25.88
2017-07-19T07:29:31.468Z,25.93
2017-07-19T07:31:59.069Z,25.96
2017-07-19T07:34:26.698Z,25.98
2017-07-19T07:36:54.288Z,26.01
2017-07-19T07:39:21.912Z,26.04
2017-07-19T07:41:49.539Z,26.06
2017-07-19T07:44:17.174Z,26.11
2017-07-19T07:46:44.778Z,26.17
2017-07-19T07:49:12.399Z,26.24
2017-07-19T07:51:39.997Z,26.28
2017-07-19T07:54:07.617Z,26.33
2017-07-19T07:56:35.219Z,26.35
2017-07-19T07:59:02.858Z,26.41
2017-07-19T08:01:30.471Z,26.47
2017-07-19T08:03:58.083Z,26.51
2017-07-19T08:06:25.719Z,26.52
2017-07-19T08:08:53.354Z,26.55
2017-07-19T08:11:20.986Z,26.57
2017-07-19T08:13:48.614Z,26.61
2017-07-19T08:16:16.211Z,26.64
2017-07-19T08:18:43.834Z,26.71
2017-07-19T08:21:11.433Z,26.74
2017-07-19T08:23:39.180Z,26.78
2017-07-19T08:26:06.781Z,26.92
2017-07-19T08:28:34.426Z,26.95
2017-07-19T08:31:02.020Z,26.96
2017-07-19T08:33:29.660Z,26.98
2017-07-19T08:35:57.287Z,27.04
2017-07-19T08:38:24.920Z,27.13
2017-07-19T08:40:52.523Z,27.23
2017-07-19T08:43:20.146Z,27.24
2017-07-19T08:45:47.746Z,27.24
2017-07-19T08:48:15.430Z,27.29
2017-07-19T08:50:43.061Z,27.36
2017-07-19T08:53:10.691Z,27.37
2017-07-19T08:55:38.307Z,27.43
2017-07-19T08:58:05.965Z,27.49
2017-07-19T09:00:33.603Z,27.54
2017-07-19T09:03:01.223Z,27.65
2017-07-19T09:05:28.873Z,27.68
2017-07-19T09:07:56.510Z,27.71
2017-07-19T09:10:24.140Z,27.78
2017-07-19T09:12:51.738Z,27.87
2017-07-19T09:15:19.382Z,28.01
2017-07-19T09:17:47.002Z,28.12
2017-07-19T09:20:14.614Z,28.15
2017-07-19T09:22:42.206Z,28.21
2017-07-19T09:25:09.882Z,28.19
2017-07-19T09:27:37.486Z,28.28
2017-07-19T09:30:05.082Z,28.36
2017-07-19T09:32:32.711Z,28.37
2017-07-19T09:35:00.323Z,28.51
2017-07-19T09:37:27.946Z,28.58
2017-07-19T09:39:55.537Z,28.64
2017-07-19T09:42:23.183Z,28.69
2017-07-19T09:44:50.790Z,28.71
2017-07-19T09:47:18.426Z,28.83
2017-07-19T09:49:46.018Z,28.96
2017-07-19T09:52:13.647Z,28.98
2017-07-19T09:54:41.240Z,29.04
2017-07-19T09:57:08.859Z,29.05
2017-07-19T09:59:36.471Z,29.10
2017-07-19T10:02:04.103Z,29.16
2017-07-19T10:04:31.712Z,29.32
2017-07-19T10:06:59.383Z,29.44
2017-07-19T10:09:26.976Z,29.67
2017-07-19T10:11:54.587Z,29.77
2017-07-19T10:14:22.243Z,29.81
2017-07-19T10:16:49.846Z,29.86
2017-07-19T10:19:17.506Z,29.96
2017-07-19T10:21:45.100Z,30.06
2017-07-19T10:24:12.718Z,30.15
2017-07-19T10:26:40.342Z,30.32
2017-07-19T10:29:07.977Z,30.49
2017-07-19T10:31:35.634Z,30.58
2017-07-19T10:34:03.288Z,30.63
2017-07-19T10:36:30.918Z,30.68
2017-07-19T10:38:58.554Z,30.77
2017-07-19T10:41:26.155Z,30.93
2017-07-19T10:43:53.792Z,31.05
2017-07-19T10:46:21.398Z,31.21
2017-07-19T10:48:49.045Z,31.27
2017-07-19T10:51:16.637Z,31.45
2017-07-19T10:53:44.296Z,31.59
2017-07-19T10:56:11.890Z,31.68
2017-07-19T10:58:39.479Z,31.84
2017-07-19T11:01:07.087Z,31.82
2017-07-19T11:03:34.698Z,31.89
2017-07-19T11:06:02.324Z,32.05
2017-07-19T11:08:29.930Z,32.16
2017-07-19T11:10:57.571Z,32.26
2017-07-19T11:13:25.166Z,32.31
2017-07-19T11:15:52.795Z,32.51
2017-07-19T11:18:20.450Z,32.65
2017-07-19T11:20:48.060Z,32.76
2017-07-19T11:23:15.687Z,32.88
2017-07-19T11:25:43.288Z,32.90
2017-07-19T11:28:11.031Z,32.93
2017-07-19T11:30:38.624Z,33.20
2017-07-19T11:33:06.287Z,33.40
2017-07-19T11:35:33.900Z,33.47
2017-07-19T11:38:01.555Z,33.54
2017-07-19T11:40:29.185Z,33.85
2017-07-19T11:42:56.820Z,33.95
2017-07-19T11:45:24.412Z,33.82
2017-07-19T11:47:52.072Z,33.99
2017-07-19T11:50:19.726Z,34.08
2017-07-19T11:52:47.356Z,34.20
2017-07-19T11:55:14.958Z,34.24
2017-07-19T11:57:42.618Z,34.21
2017-07-19T12:00:10.255Z,34.00
2017-07-19T12:02:37.914Z,33.77
2017-07-19T12:05:05.588Z,33.58
2017-07-19T12:07:33.203Z,33.58
2017-07-19T12:10:00.823Z,33.72
2017-07-19T12:12:28.451Z,33.84
2017-07-19T12:14:56.097Z,33.77
2017-07-19T12:17:23.687Z,33.58
2017-07-19T12:19:51.337Z,33.41
2017-07-19T12:22:18.931Z,33.35
2017-07-19T12:24:46.535Z,33.37
2017-07-19T12:27:14.192Z,33.52
2017-07-19T12:29:41.854Z,33.81
2017-07-19T12:32:09.450Z,34.11
2017-07-19T12:34:37.057Z,34.46
2017-07-19T12:37:04.688Z,34.58
2017-07-19T12:39:32.284Z,34.60
2017-07-19T12:41:59.909Z,34.62
2017-07-19T12:44:27.506Z,34.65
2017-07-19T12:46:55.130Z,34.68
2017-07-19T12:49:22.747Z,34.67
2017-07-19T12:51:50.426Z,34.79
2017-07-19T12:54:18.049Z,34.85
2017-07-19T12:56:45.668Z,34.90
2017-07-19T12:59:13.278Z,34.65
2017-07-19T13:01:40.961Z,34.39
2017-07-19T13:04:08.568Z,33.95
2017-07-19T13:06:36.161Z,33.65
2017-07-19T13:09:03.783Z,33.39
2017-07-19T13:11:31.422Z,33.16
2017-07-19T13:13:59.074Z,32.92
2017-07-19T13:16:26.663Z,32.72
2017-07-19T13:18:54.302Z,32.57
2017-07-19T13:21:21.891Z,32.46
2017-07-19T13:23:49.491Z,32.32
2017-07-19T13:26:17.135Z,32.19
2017-07-19T13:28:44.775Z,32.02
2017-07-19T13:31:12.371Z,31.82
2017-07-19T13:33:40.030Z,31.17
2017-07-19T13:36:07.655Z,31.00
2017-07-19T13:38:35.259Z,30.97
2017-07-19T13:41:02.895Z,29.77
2017-07-19T13:43:30.497Z,29.05
2017-07-19T13:45:58.134Z,28.70
2017-07-19T13:48:25.743Z,28.29
2017-07-19T13:50:53.390Z,28.20
2017-07-19T13:53:21.007Z,28.09
2017-07-19T13:55:48.630Z,27.85
2017-07-19T13:58:16.226Z,27.45
2017-07-19T14:00:43.958Z,26.48
2017-07-19T14:03:11.558Z,25.26
2017-07-19T14:05:39.219Z,23.55
2017-07-19T14:08:06.825Z,22.51
2017-07-19T14:10:34.460Z,22.39
2017-07-19T14:13:02.060Z,22.21
2017-07-19T14:15:29.694Z,21.99
2017-07-19T14:17:57.319Z,22.02
2017-07-19T14:20:24.987Z,22.15
2017-07-19T14:22:52.587Z,22.33
2017-07-19T14:25:20.210Z,22.43
2017-07-19T14:27:47.849Z,22.51
2017-07-19T14:30:15.430Z,22.57
2017-07-19T14:32:43.062Z,22.60
2017-07-19T14:35:10.734Z,22.62
2017-07-19T14:37:38.367Z,22.72
2017-07-19T14:40:05.973Z,22.79
2017-07-19T14:42:33.614Z,22.74
2017-07-19T14:45:01.222Z,22.71
2017-07-19T14:47:28.856Z,22.89
2017-07-19T14:49:58.447Z,22.88
2017-07-19T14:52:26.120Z,22.99
2017-07-19T14:54:53.739Z,23.03
2017-07-19T14:57:21.403Z,23.01
2017-07-19T14:59:49.024Z,22.95
2017-07-19T15:02:16.637Z,22.71
2017-07-19T15:04:44.274Z,22.57
2017-07-19T15:07:11.884Z,22.74
2017-07-19T15:09:39.517Z,22.86
2017-07-19T15:12:07.116Z,22.84
2017-07-19T15:14:34.750Z,22.87
2017-07-19T15:17:02.359Z,22.90
2017-07-19T15:19:29.983Z,22.95
2017-07-19T15:21:58.243Z,22.94
2017-07-19T15:24:25.867Z,23.08
2017-07-19T15:26:53.486Z,23.18
2017-07-19T15:29:21.127Z,23.26
2017-07-19T15:31:48.737Z,23.23
2017-07-19T15:34:16.368Z,23.24
2017-07-19T15:36:44.002Z,23.23
2017-07-19T15:39:11.668Z,23.23
2017-07-19T15:41:39.282Z,23.22
2017-07-19T15:44:06.943Z,23.20
2017-07-19T15:46:34.566Z,23.25
2017-07-19T15:49:02.187Z,23.30
2017-07-19T15:51:29.832Z,23.30
2017-07-19T15:53:57.502Z,23.35
2017-07-19T15:56:25.120Z,23.41
2017-07-19T15:58:52.755Z,23.42
2017-07-19T16:01:20.382Z,23.49
2017-07-19T16:03:48.006Z,23.28
2017-07-19T16:06:15.610Z,23.32
2017-07-19T16:11:25.552Z,23.22
2017-07-19T16:13:53.194Z,22.97
2017-07-19T16:16:20.806Z,22.87
2017-07-19T16:18:48.471Z,22.98
2017-07-19T16:21:16.092Z,23.11
2017-07-19T16:23:43.739Z,23.33
2017-07-19T16:26:11.356Z,23.61
2017-07-19T16:28:39.056Z,23.82
2017-07-19T16:31:06.726Z,23.90
2017-07-19T16:33:35.624Z,24.01
2017-07-19T16:36:03.264Z,24.20
2017-07-19T16:38:30.944Z,24.35
2017-07-19T16:40:58.539Z,24.56
2017-07-19T16:43:26.202Z,24.70
2017-07-19T16:45:53.806Z,24.90
2017-07-19T16:48:21.495Z,25.14
2017-07-19T16:50:49.110Z,25.24
2017-07-19T16:53:16.865Z,25.26
2017-07-19T16:55:44.459Z,25.28
2017-07-19T16:58:12.104Z,25.35
2017-07-19T17:00:39.704Z,25.40
2017-07-19T17:03:07.351Z,25.43
2017-07-19T17:05:34.967Z,25.55
2017-07-19T17:08:02.600Z,25.59
2017-07-19T17:10:30.213Z,25.69
2017-07-19T17:12:57.863Z,25.68
2017-07-19T17:15:25.459Z,25.71
2017-07-19T17:17:53.088Z,25.79
2017-07-19T17:20:20.698Z,25.84
2017-07-19T17:22:48.365Z,25.88
2017-07-19T17:25:15.983Z,25.85
2017-07-19T17:27:43.667Z,25.84
2017-07-19T17:30:11.266Z,25.79
2017-07-19T17:32:38.871Z,25.69
2017-07-19T17:35:06.491Z,25.58
2017-07-19T17:37:34.133Z,25.38
2017-07-19T17:40:01.766Z,25.11
2017-07-19T17:42:29.391Z,25.21
2017-07-19T17:44:57.030Z,25.29
2017-07-19T17:47:24.653Z,25.30
2017-07-19T17:49:52.318Z,25.27
2017-07-19T17:52:19.928Z,25.20
2017-07-19T17:54:47.559Z,25.25
2017-07-19T17:57:15.184Z,25.36
2017-07-19T17:59:42.847Z,25.42
2017-07-19T18:02:10.439Z,25.54
2017-07-19T18:04:38.048Z,25.60
2017-07-19T18:07:05.691Z,25.53
2017-07-19T18:09:33.294Z,25.70
2017-07-19T18:12:00.928Z,25.53
2017-07-19T18:14:28.557Z,25.32
2017-07-19T18:16:56.182Z,25.04
2017-07-19T18:19:23.786Z,24.77
2017-07-19T18:21:51.446Z,24.61
2017-07-19T18:24:19.046Z,24.55
2017-07-19T18:26:46.679Z,24.55
2017-07-19T18:29:14.279Z,24.44
2017-07-19T18:31:41.907Z,24.49
2017-07-19T18:34:09.536Z,24.45
2017-07-19T18:36:37.162Z,24.32
2017-07-19T18:39:04.760Z,24.35
2017-07-19T18:41:32.433Z,24.38
2017-07-19T18:44:00.080Z,24.31
2017-07-19T18:46:27.739Z,24.32
2017-07-19T18:48:55.399Z,24.33
2017-07-19T18:51:23.018Z,24.35
2017-07-19T18:53:50.686Z,24.37
2017-07-19T18:56:18.299Z,24.36
2017-07-19T18:58:45.923Z,24.27
2017-07-19T19:01:13.528Z,24.26
2017-07-19T19:03:41.242Z,24.21
2017-07-19T19:06:08.846Z,24.23
2017-07-19T19:08:36.479Z,24.19
2017-07-19T19:11:04.061Z,24.15
2017-07-19T19:13:31.719Z,24.14
2017-07-19T19:15:59.336Z,24.12
2017-07-19T19:18:26.972Z,23.99
2017-07-19T19:20:54.588Z,23.90
2017-07-19T19:23:22.240Z,23.84
2017-07-19T19:25:49.927Z,23.76
2017-07-19T19:28:17.558Z,23.76
2017-07-19T19:30:45.203Z,23.74
2017-07-19T19:33:12.823Z,23.68
2017-07-19T19:35:40.459Z,23.75
2017-07-19T19:38:08.071Z,23.70
2017-07-19T19:40:35.751Z,23.69
2017-07-19T19:43:03.372Z,23.69
2017-07-19T19:45:31.024Z,23.67
2017-07-19T19:47:58.628Z,23.65
2017-07-19T19:50:26.207Z,23.60
2017-07-19T19:52:53.851Z,23.59
2017-07-19T19:55:21.455Z,23.54
2017-07-19T19:57:49.098Z,23.48
2017-07-19T20:00:16.702Z,23.49
2017-07-19T20:02:44.382Z,23.48
2017-07-19T20:05:11.978Z,23.44
2017-07-19T20:07:39.631Z,23.45
2017-07-19T20:10:07.335Z,23.43
2017-07-19T20:12:34.982Z,23.44
2017-07-19T20:15:02.581Z,23.37
2017-07-19T20:17:30.228Z,23.30
2017-07-19T20:19:57.903Z,23.28
2017-07-19T20:22:25.540Z,23.29
2017-07-19T20:24:53.187Z,23.28
2017-07-19T20:27:20.806Z,23.29
2017-07-19T20:29:48.437Z,23.23
2017-07-19T20:32:16.059Z,23.21
2017-07-19T20:34:43.720Z,23.21
2017-07-19T20:37:11.286Z,23.19
2017-07-19T20:39:38.942Z,23.15
2017-07-19T20:42:06.539Z,23.15
2017-07-19T20:44:34.160Z,23.14
2017-07-19T20:47:02.581Z,23.14
2017-07-19T20:49:30.202Z,23.14
2017-07-19T20:51:59.540Z,23.20
2017-07-19T20:54:27.202Z,23.20
2017-07-19T20:56:54.803Z,23.19
2017-07-19T20:59:22.417Z,23.18
2017-07-19T21:01:50.046Z,23.18
2017-07-19T21:04:17.755Z,23.16
2017-07-19T21:06:45.391Z,23.15
2017-07-19T21:09:12.989Z,23.18
2017-07-19T21:11:40.614Z,23.14
2017-07-19T21:14:08.222Z,23.16
2017-07-19T21:16:35.854Z,23.13
2017-07-19T21:19:03.477Z,23.10
2017-07-19T21:21:31.105Z,23.07
2017-07-19T21:23:58.739Z,23.03
2017-07-19T21:26:26.388Z,22.89
2017-07-19T21:28:53.980Z,22.80
2017-07-19T21:31:21.631Z,22.70
2017-07-19T21:33:49.252Z,22.75
2017-07-19T21:36:16.848Z,22.80
2017-07-19T21:38:44.471Z,22.77
2017-07-19T21:41:12.119Z,22.84
2017-07-19T21:43:39.718Z,22.87
2017-07-19T21:46:07.333Z,22.89
2017-07-19T21:48:34.968Z,22.87
2017-07-19T21:51:02.564Z,22.81
2017-07-19T21:53:30.351Z,22.75
2017-07-19T21:55:57.963Z,22.70
2017-07-19T21:58:25.692Z,22.72
2017-07-19T22:00:53.299Z,22.73
2017-07-19T22:03:20.983Z,22.69
2017-07-19T22:05:48.573Z,22.68
2017-07-19T22:08:16.228Z,22.64
2017-07-19T22:10:43.831Z,22.64
2017-07-19T22:13:11.461Z,22.62
2017-07-19T22:15:39.068Z,22.63
2017-07-19T22:18:06.698Z,22.65
2017-07-19T22:20:34.298Z,22.71
2017-07-19T22:23:01.943Z,22.72
2017-07-19T22:25:29.538Z,22.71
2017-07-19T22:27:57.179Z,22.66
2017-07-19T22:30:24.801Z,22.64
2017-07-19T22:32:52.462Z,22.62
2017-07-19T22:35:20.071Z,22.65
2017-07-19T22:37:47.692Z,22.69
2017-07-19T22:40:15.322Z,22.72
2017-07-19T22:42:42.911Z,22.73
2017-07-19T22:45:10.544Z,22.77
2017-07-19T22:47:38.158Z,22.68
2017-07-19T22:50:05.827Z,22.58
2017-07-19T22:52:33.474Z,22.50
2017-07-19T22:55:01.109Z,22.35
2017-07-19T22:57:28.712Z,22.51
2017-07-19T22:59:56.334Z,22.60
2017-07-19T23:02:23.932Z,22.68
2017-07-19T23:04:51.584Z,22.69
2017-07-19T23:07:19.191Z,22.60
2017-07-19T23:09:46.894Z,22.61
2017-07-19T23:12:14.519Z,22.52
2017-07-19T23:14:42.129Z,22.42
2017-07-19T23:17:09.758Z,22.50
2017-07-19T23:19:37.359Z,22.57
2017-07-19T23:22:05.006Z,22.64
2017-07-19T23:24:32.595Z,22.64
2017-07-19T23:27:00.214Z,22.61
2017-07-19T23:29:27.819Z,22.64
2017-07-19T23:31:55.479Z,22.62
2017-07-19T23:34:23.078Z,22.65
2017-07-19T23:36:50.725Z,22.61
2017-07-19T23:39:18.318Z,22.42
2017-07-19T23:41:45.955Z,22.24
2017-07-19T23:44:13.546Z,22.25
2017-07-19T23:46:41.186Z,22.13
2017-07-19T23:49:08.783Z,22.06
2017-07-19T23:51:36.418Z,22.06
2017-07-19T23:54:04.031Z,22.09
2017-07-19T23:56:31.627Z,22.21
2017-07-19T23:58:59.299Z,22.23
